Wahoo, NE

7:41 AM CDT on April 19, 2018 (GMT -0500)
Wahoo Municipal

Weather History for KAHQ - October, 2011

Change the Weather History Date:

Monday, October 17, 2011

  Actual Average Record
Temperature  
Mean Temperature 42 °F -  
Max Temperature 50 °F 66 °F 83 °F (1991)
Min Temperature 35 °F 39 °F 15 °F (1976)
Degree Days  
Heating Degree Days 22    
Moisture  
Dew Point 39 °F    
Average Humidity 81    
Maximum Humidity 93    
Minimum Humidity 70    
Precipitation  
Precipitation 0.19 in - - ()
Sea Level Pressure  
Sea Level Pressure 30.03 in    
Wind  
Wind Speed 4 mph (NNW)    
Max Wind Speed 16 mph    
Max Gust Speed 22 mph    
Visibility 10 miles    
Events Rain    
Averages and records for this station are not official NWS values.
T = Trace of Precipitation, MM = Missing Value Source: NWS Daily Summary

Daily Weather History Graph

Daily Weather History Graph

Search for Another Location

Airport or City:

Trip Planner

Search our weather history database for the weather conditions in past years. The results will help you decide how hot, cold, wet, or windy it might be!

Date:

Astronomy

Oct. 17, 2011 Rise Set
Actual Time 7:40 AM CDT 6:42 PM CDT
Civil Twilight 7:12 AM CDT 7:10 PM CDT
Nautical Twilight 6:40 AM CDT 7:42 PM CDT
Astronomical Twilight 6:08 AM CDT 8:14 PM CDT
Moon 10:22 PM CDT (10/17) 12:49 PM CDT (10/17)
Length of Visible Light 11h 58m
Length of Day
11h 02m
Waning Gibbous, 74% of the Moon is Illuminated
Oct 17
Waning Gibbous
Oct 19
Last Quarter
Oct 26
New
Nov 2
First Quarter
Nov 10
Full

Hourly Weather History & Observations

Time (CDT) Temp. Windchill Dew Point Humidity Pressure Visibility Wind Dir Wind Speed Gust Speed Precip Events Conditions
12:15 AM 41.0 °F - 33.8 °F 76% 30.05 in 10.0 mi Calm Calm - N/A   Clear
12:35 AM 41.0 °F - 32.0 °F 70% 30.04 in 10.0 mi Calm Calm - N/A   Clear
12:55 AM 41.0 °F - 32.0 °F 70% 30.04 in 10.0 mi Calm Calm - N/A   Clear
1:15 AM 37.4 °F - 32.0 °F 81% 30.04 in 10.0 mi Calm Calm - N/A   Clear
1:35 AM 35.6 °F - 32.0 °F 87% 30.04 in 10.0 mi Calm Calm - N/A   Clear
1:55 AM 35.6 °F - 32.0 °F 87% 30.04 in 10.0 mi Calm Calm - N/A   Clear
3:15 AM 35.6 °F - 32.0 °F 87% 30.02 in 10.0 mi Calm Calm - N/A   Clear
3:35 AM 37.4 °F - 33.8 °F 87% 30.01 in 10.0 mi Calm Calm - N/A   Clear
3:55 AM 37.4 °F - 33.8 °F 87% 30.01 in 10.0 mi Calm Calm - N/A   Scattered Clouds
4:15 AM 39.2 °F - 35.6 °F 87% 30.02 in 10.0 mi Calm Calm - N/A   Scattered Clouds
4:35 AM 42.8 °F 41.1 °F 37.4 °F 81% 30.02 in 10.0 mi West 3.5 mph - N/A   Mostly Cloudy
5:15 AM 42.8 °F 41.1 °F 37.4 °F 81% 30.02 in 10.0 mi NE 3.5 mph - N/A   Overcast
5:35 AM 42.8 °F 40.1 °F 37.4 °F 81% 30.01 in 10.0 mi NNE 4.6 mph - N/A   Overcast
5:55 AM 42.8 °F 41.1 °F 37.4 °F 81% 30.00 in 10.0 mi NNE 3.5 mph - N/A   Overcast
6:15 AM 42.8 °F 40.1 °F 37.4 °F 81% 30.00 in 10.0 mi North 4.6 mph - N/A Rain Light Rain
6:35 AM 42.8 °F 39.3 °F 37.4 °F 81% 29.99 in 10.0 mi North 5.8 mph - N/A Rain Light Rain
6:55 AM 42.8 °F 40.1 °F 39.2 °F 87% 30.00 in 10.0 mi North 4.6 mph - N/A Rain Light Rain
7:15 AM 42.8 °F 40.1 °F 37.4 °F 81% 30.00 in 10.0 mi North 4.6 mph - N/A   Overcast
7:35 AM 42.8 °F 41.1 °F 39.2 °F 87% 30.01 in 10.0 mi SW 3.5 mph - N/A   Overcast
7:55 AM 42.8 °F 41.1 °F 37.4 °F 81% 30.02 in 10.0 mi West 3.5 mph - N/A   Overcast
8:15 AM 44.6 °F 43.1 °F 37.4 °F 76% 30.04 in 10.0 mi NW 3.5 mph - N/A   Overcast
8:35 AM 44.6 °F 42.2 °F 37.4 °F 76% 30.04 in 10.0 mi NNW 4.6 mph - N/A   Overcast
8:55 AM 44.6 °F 41.4 °F 37.4 °F 76% 30.05 in 10.0 mi NNW 5.8 mph - N/A Rain Light Rain
9:15 AM 44.6 °F 40.7 °F 37.4 °F 76% 30.06 in 10.0 mi North 6.9 mph - N/A Rain Light Rain
9:35 AM 44.6 °F 39.2 °F 39.2 °F 81% 30.06 in 10.0 mi North 10.4 mph - N/A Rain Light Rain
9:55 AM 42.8 °F 38.6 °F 41.0 °F 93% 30.06 in 10.0 mi North 6.9 mph - 0.03 in Rain Rain
10:15 AM 42.8 °F 40.1 °F 41.0 °F 93% 30.06 in 7.0 mi North 4.6 mph - 0.03 in Rain Rain
10:35 AM 42.8 °F - 41.0 °F 93% 30.05 in 10.0 mi Calm Calm - 0.05 in Rain Light Rain
10:55 AM 44.6 °F - 39.2 °F 81% 30.05 in 10.0 mi Calm Calm - 0.05 in Rain Rain
11:15 AM 44.6 °F - 39.2 °F 81% 30.04 in 10.0 mi Calm Calm - N/A Rain Rain
11:35 AM 44.6 °F - 39.2 °F 81% 30.04 in 10.0 mi Calm Calm - 0.01 in Rain Rain
11:55 AM 44.6 °F - 41.0 °F 87% 30.05 in 10.0 mi Calm Calm - 0.01 in Rain Light Rain
12:15 PM 44.6 °F - 39.2 °F 81% 30.06 in 10.0 mi Calm Calm - 0.02 in Rain Rain
12:35 PM 44.6 °F - 39.2 °F 81% 30.06 in 5.0 mi Calm Calm - 0.05 in Rain Light Rain
12:55 PM 44.6 °F - 39.2 °F 81% 30.06 in 5.0 mi Calm Calm - 0.09 in Rain Light Rain
1:15 PM 44.6 °F - 39.2 °F 81% 30.06 in 10.0 mi Calm Calm - N/A Rain Light Rain
1:35 PM 46.4 °F - 39.2 °F 76% 30.05 in 10.0 mi Calm Calm - N/A Rain Light Rain
1:55 PM 46.4 °F - 41.0 °F 81% 30.04 in 10.0 mi Calm Calm - N/A   Overcast
2:15 PM 48.2 °F - 41.0 °F 76% 30.04 in 10.0 mi NNW 4.6 mph - N/A   Overcast
2:35 PM 48.2 °F - 41.0 °F 76% 30.04 in 10.0 mi NNW 8.1 mph - N/A   Overcast
2:55 PM 48.2 °F - 42.8 °F 82% 30.04 in 10.0 mi NNW 10.4 mph - N/A   Overcast
3:15 PM 48.2 °F - 41.0 °F 76% 30.02 in 10.0 mi NW 11.5 mph - N/A   Overcast
3:35 PM 46.4 °F 41.5 °F 42.8 °F 87% 30.02 in 10.0 mi NW 10.4 mph - N/A   Overcast
3:55 PM 46.4 °F 41.1 °F 41.0 °F 81% 30.02 in 10.0 mi NW 11.5 mph - N/A   Light Drizzle
4:15 PM 46.4 °F 41.5 °F 42.8 °F 87% 30.02 in 10.0 mi WNW 10.4 mph - N/A Rain Light Rain
4:35 PM 48.2 °F - 42.8 °F 82% 30.02 in 10.0 mi NW 13.8 mph - 0.01 in   Mostly Cloudy
4:55 PM 50.0 °F - 42.8 °F 76% 30.02 in 10.0 mi NW 13.8 mph 19.6 mph 0.01 in   Overcast
5:15 PM 50.0 °F - 41.0 °F 71% 30.02 in 10.0 mi NW 12.7 mph 21.9 mph N/A   Mostly Cloudy
5:35 PM 48.2 °F - 41.0 °F 76% 30.01 in 10.0 mi NW 12.7 mph - N/A   Overcast
5:55 PM 48.2 °F - 41.0 °F 76% 30.02 in 10.0 mi NW 13.8 mph - N/A   Overcast
6:15 PM 48.2 °F - 41.0 °F 76% 30.02 in 10.0 mi NW 12.7 mph - N/A   Scattered Clouds
6:35 PM 46.4 °F 41.1 °F 41.0 °F 81% 30.02 in 10.0 mi NW 11.5 mph - N/A   Scattered Clouds
7:15 PM 46.4 °F 40.7 °F 41.0 °F 81% 30.04 in 10.0 mi NW 12.7 mph - N/A   Overcast
7:35 PM 46.4 °F 41.5 °F 41.0 °F 81% 30.05 in 10.0 mi NW 10.4 mph - N/A   Overcast
7:55 PM 46.4 °F 41.5 °F 41.0 °F 81% 30.05 in 10.0 mi NW 10.4 mph - N/A   Overcast
8:15 PM 46.4 °F 41.9 °F 41.0 °F 81% 30.06 in 10.0 mi NW 9.2 mph - N/A   Overcast
8:35 PM 46.4 °F 41.5 °F 41.0 °F 81% 30.06 in 10.0 mi NW 10.4 mph - N/A   Overcast
8:55 PM 46.4 °F 41.5 °F 41.0 °F 81% 30.05 in 10.0 mi NW 10.4 mph - N/A   Overcast
9:15 PM 46.4 °F 40.1 °F 41.0 °F 81% 30.05 in 10.0 mi NW 15.0 mph 20.7 mph N/A   Overcast
9:35 PM 46.4 °F 39.8 °F 39.2 °F 76% 30.07 in 10.0 mi NW 16.1 mph 20.7 mph N/A   Overcast
9:55 PM 48.2 °F - 37.4 °F 66% 30.07 in 10.0 mi North 12.7 mph 24.2 mph N/A   Light Drizzle
10:15 PM 48.2 °F - 37.4 °F 66% 30.07 in 10.0 mi North 5.8 mph - N/A   Overcast
10:35 PM 48.2 °F - 35.6 °F 62% 30.07 in 10.0 mi WNW 11.5 mph 17.3 mph N/A   Overcast
10:55 PM 46.4 °F 41.5 °F 37.4 °F 71% 30.06 in 10.0 mi WNW 10.4 mph - N/A   Overcast
11:15 PM 46.4 °F 41.1 °F 37.4 °F 71% 30.06 in 10.0 mi WNW 11.5 mph - N/A   Overcast
11:35 PM 46.4 °F 41.1 °F 39.2 °F 76% 30.05 in 10.0 mi WNW 11.5 mph 17.3 mph N/A   Overcast
11:55 PM 46.4 °F 40.4 °F 39.2 °F 76% 30.04 in 10.0 mi WNW 13.8 mph 18.4 mph N/A   Mostly Cloudy